Los Angeles International Airport
KLAX : rendu visible

Aérodrome :











RETROUVEZ-NOUS SUR...

 
LOGIN :

S'inscrire | Disclaimer

   EN    FR    IT 

 









Légende :    VFR   VFR Marginal   IFR   IFR Intensif   IFR Très Intensif
Visi : 
Plafond : 
>= 8 km
>= 3000ft
5 à 8 km
1000 à 3000 ft
1500m à 5 km
500 à 1000 ft
800 à 1500m
200 à 500 ft
< 800m
< 200 ft
Symboles :   Orages  Brouillard  Fortes neiges  Fortes précipitations  Vent > 20 kt






- Altitude de l'aérodrome : 125 ft
- Code IATA : LAX


KLAX - Los Angeles International

DERNIER METAR :
  • 221553Z 00000KT 10SM FEW017 SCT030 BKN110 15/09 A3004 RMK AO2 SLP171 T01500094

METARs EXPIRÉS :
  • 221453Z 17003KT 10SM FEW015 SCT030 BKN110 14/09 A3001 RMK AO2 RAB27E35 SLP162 P0000 60000 T01440094 53007

TAF KLAX
Valide du 22 à 15h jusqu'au 23 à 18h UTC


221459Z 2215/2318 VRB03KT P6SM VCSH SCT030 BKN100
FM221700 11006KT P6SM -SHRA VCTS BKN025CB OVC050
FM221900 24008KT P6SM -SHRA VCTS BKN025CB OVC050
FM222200 24012KT P6SM -SHRA SCT025 BKN050
FM230300 27008KT P6SM BKN017
FM230600 VRB03KT P6SM OVC012



MET'MAP, la Météo Aéronautique d'un coup d'oeil ! - Copyright ORBIFLY Décembre 2007 - Disclaimer

ORBIFLY MET'MAP TEAM :

Programmation & Développement : Alexandra Zaïnal
Sur une idée originale de : Baudouin d'Aumeries
Assistance à la programmation : Marc-Olivier Méhu
Soutien technique & logistique : Manuel Goepfert

Contact : metmap@orbifly.com




SOURCES & CREDITS :

   NOAA       Earth
Advisory